createdAt,value
2022-12-15T00:02:24.388Z,93.24
2022-12-15T00:05:10.355Z,92.66
2022-12-15T00:07:56.229Z,92.41
2022-12-15T00:10:42.064Z,92.17
2022-12-15T00:13:31.967Z,92.46
2022-12-15T00:16:18.445Z,92.58
2022-12-15T00:19:04.470Z,91.62
2022-12-15T00:21:50.658Z,91.90
2022-12-15T00:24:36.553Z,90.51
2022-12-15T00:27:22.386Z,90.09
2022-12-15T00:30:08.353Z,90.67
2022-12-15T00:32:54.307Z,90.37
2022-12-15T00:35:40.210Z,90.24
2022-12-15T00:38:30.652Z,90.39
2022-12-15T00:40:59.630Z,90.35
2022-12-15T00:43:31.406Z,90.11
2022-12-15T00:46:17.891Z,89.37
2022-12-15T00:48:45.252Z,88.90
2022-12-15T00:51:13.648Z,88.67
2022-12-15T00:53:59.336Z,88.82
2022-12-15T00:56:45.303Z,88.30
2022-12-15T00:59:31.384Z,88.99
2022-12-15T01:02:17.434Z,88.11
2022-12-15T01:05:03.463Z,87.51
2022-12-15T01:07:50.042Z,87.89
2022-12-15T01:10:37.041Z,87.63
2022-12-15T01:13:23.514Z,88.73
2022-12-15T01:16:09.546Z,88.12
2022-12-15T01:18:55.404Z,87.56
2022-12-15T01:21:25.520Z,87.72
2022-12-15T01:23:53.250Z,86.86
2022-12-15T01:26:20.612Z,87.82
2022-12-15T01:28:47.948Z,88.57
2022-12-15T01:31:15.245Z,88.13
2022-12-15T01:33:43.751Z,87.69
2022-12-15T01:36:11.189Z,87.27
2022-12-15T01:38:38.553Z,85.92
2022-12-15T01:41:07.542Z,86.24
2022-12-15T01:43:36.501Z,84.78
2022-12-15T01:46:11.010Z,84.98
2022-12-15T01:48:42.138Z,86.36
2022-12-15T01:51:30.867Z,86.54
2022-12-15T01:54:10.217Z,86.40
2022-12-15T01:56:40.238Z,87.59
2022-12-15T01:59:08.831Z,86.39
2022-12-15T02:01:36.595Z,86.39
2022-12-15T02:04:04.359Z,85.11
2022-12-15T02:06:31.595Z,85.61
2022-12-15T02:08:59.575Z,86.41
2022-12-15T02:11:44.843Z,85.49
2022-12-15T02:14:35.545Z,85.69
2022-12-15T02:17:05.747Z,84.82
2022-12-15T02:19:51.209Z,85.81
2022-12-15T02:22:21.685Z,84.72
2022-12-15T02:25:06.318Z,84.93
2022-12-15T02:27:55.636Z,85.76
2022-12-15T02:30:30.305Z,86.06
2022-12-15T02:33:03.869Z,86.23
2022-12-15T02:35:41.721Z,85.49
2022-12-15T02:38:09.475Z,85.47
2022-12-15T02:40:37.509Z,85.31
2022-12-15T02:43:05.375Z,85.24
2022-12-15T02:46:06.416Z,85.07
2022-12-15T02:48:59.820Z,82.65
2022-12-15T02:51:34.334Z,84.07
2022-12-15T02:54:13.871Z,83.13
2022-12-15T02:56:53.376Z,84.03
2022-12-15T02:59:43.032Z,84.23
2022-12-15T03:02:10.390Z,83.82
2022-12-15T03:04:38.224Z,84.06
2022-12-15T03:07:08.490Z,84.43
2022-12-15T03:09:36.517Z,83.88
2022-12-15T03:12:04.483Z,84.23
2022-12-15T03:14:33.389Z,84.91
2022-12-15T03:17:00.858Z,85.33
2022-12-15T03:19:28.353Z,85.45
2022-12-15T03:21:55.706Z,85.27
2022-12-15T03:24:22.943Z,85.30
2022-12-15T03:26:50.320Z,85.15
2022-12-15T03:29:18.065Z,84.88
2022-12-15T03:31:45.454Z,85.56
2022-12-15T03:34:12.674Z,85.37
2022-12-15T03:36:40.007Z,84.74
2022-12-15T03:39:07.255Z,85.13
2022-12-15T03:41:34.929Z,85.16
2022-12-15T03:44:02.220Z,85.32
2022-12-15T03:46:29.680Z,85.13
2022-12-15T03:48:58.594Z,84.43
2022-12-15T03:51:26.291Z,85.32
2022-12-15T03:53:53.768Z,85.16
2022-12-15T03:56:21.038Z,85.03
2022-12-15T03:58:48.297Z,84.50
2022-12-15T04:01:21.723Z,85.49
2022-12-15T04:03:49.140Z,85.61
2022-12-15T04:06:16.500Z,86.13
2022-12-15T04:08:43.985Z,85.99
2022-12-15T04:11:11.214Z,86.74
2022-12-15T04:13:39.263Z,86.21
2022-12-15T04:16:06.684Z,87.67
2022-12-15T04:18:34.924Z,86.77
2022-12-15T04:21:02.146Z,86.77
2022-12-15T04:23:29.944Z,86.98
2022-12-15T04:26:16.299Z,87.36
2022-12-15T04:29:02.498Z,88.02
2022-12-15T04:31:51.996Z,87.61
2022-12-15T04:34:42.258Z,88.62
2022-12-15T04:37:30.242Z,88.17
2022-12-15T04:40:15.995Z,89.02
2022-12-15T04:43:03.700Z,89.17
2022-12-15T04:45:49.750Z,88.07
2022-12-15T04:48:35.659Z,88.48
2022-12-15T04:51:23.662Z,89.23
2022-12-15T04:54:09.995Z,89.40
2022-12-15T04:56:55.928Z,89.42
2022-12-15T04:59:43.671Z,89.29
2022-12-15T05:02:29.708Z,88.87
2022-12-15T05:05:15.687Z,88.87
2022-12-15T05:08:01.894Z,89.43
2022-12-15T05:10:48.079Z,89.84
2022-12-15T05:13:34.219Z,90.01
2022-12-15T05:16:20.290Z,90.46
2022-12-15T05:19:06.425Z,90.04
2022-12-15T05:21:52.248Z,89.81
2022-12-15T05:24:38.126Z,90.52
2022-12-15T05:27:23.905Z,90.98
2022-12-15T05:30:09.842Z,91.30
2022-12-15T05:32:37.106Z,92.10
2022-12-15T05:35:04.952Z,91.49
2022-12-15T05:37:33.219Z,91.50
2022-12-15T05:40:00.445Z,91.16
2022-12-15T05:42:27.662Z,91.68
2022-12-15T05:44:55.246Z,91.95
2022-12-15T05:47:23.630Z,92.19
2022-12-15T05:49:51.305Z,92.19
2022-12-15T05:52:18.562Z,92.21
2022-12-15T05:54:45.887Z,91.81
2022-12-15T05:57:13.161Z,91.77
2022-12-15T05:59:40.378Z,91.93
2022-12-15T06:02:07.651Z,91.80
2022-12-15T06:04:34.995Z,91.93
2022-12-15T06:07:02.369Z,92.08
2022-12-15T06:09:29.888Z,92.41
2022-12-15T06:11:57.255Z,92.57
2022-12-15T06:14:24.466Z,92.54
2022-12-15T06:16:52.004Z,92.88
2022-12-15T06:19:20.021Z,92.34
2022-12-15T06:21:47.394Z,92.70
2022-12-15T06:24:15.200Z,92.50
2022-12-15T06:26:42.597Z,92.68
2022-12-15T06:29:11.047Z,92.28
2022-12-15T06:31:38.530Z,92.26
2022-12-15T06:34:07.306Z,92.75
2022-12-15T06:36:34.773Z,92.61
2022-12-15T06:39:02.754Z,93.26
2022-12-15T06:41:30.791Z,92.72
2022-12-15T06:43:59.608Z,92.46
2022-12-15T06:46:28.057Z,92.75
2022-12-15T06:48:55.611Z,92.93
2022-12-15T06:51:23.270Z,92.64
2022-12-15T06:53:53.913Z,93.41
2022-12-15T06:56:33.722Z,92.88
2022-12-15T06:59:05.122Z,92.79
2022-12-15T07:01:34.511Z,93.06
2022-12-15T07:04:03.331Z,93.29
2022-12-15T07:06:36.475Z,93.19
2022-12-15T07:09:07.596Z,93.93
2022-12-15T07:11:35.729Z,93.72
2022-12-15T07:14:03.196Z,93.81
2022-12-15T07:16:30.675Z,93.45
2022-12-15T07:18:57.997Z,93.42
2022-12-15T07:21:25.263Z,93.34
2022-12-15T07:23:55.973Z,93.55
2022-12-15T07:26:23.994Z,93.15
2022-12-15T07:28:51.442Z,93.56
2022-12-15T07:31:18.681Z,92.88
2022-12-15T07:33:48.463Z,92.86
2022-12-15T07:36:15.963Z,92.63
2022-12-15T07:38:49.932Z,92.47
2022-12-15T07:41:19.265Z,92.82
2022-12-15T07:43:47.746Z,92.79
2022-12-15T07:46:15.772Z,92.63
2022-12-15T07:48:43.048Z,91.95
2022-12-15T07:51:18.732Z,92.03
2022-12-15T07:53:47.920Z,91.86
2022-12-15T07:56:15.607Z,90.82
2022-12-15T07:58:42.999Z,91.47
2022-12-15T08:01:12.290Z,91.22
2022-12-15T08:03:40.522Z,92.30
2022-12-15T08:06:12.351Z,92.03
2022-12-15T08:08:39.942Z,92.06
2022-12-15T08:11:13.426Z,90.76
2022-12-15T08:16:29.078Z,91.93
2022-12-15T08:18:59.055Z,91.88
2022-12-15T08:21:26.260Z,92.21
2022-12-15T08:23:53.540Z,92.34
2022-12-15T08:26:25.198Z,93.15
2022-12-15T08:28:56.057Z,93.53
2022-12-15T08:31:24.221Z,93.57
2022-12-15T08:33:52.382Z,93.35
2022-12-15T08:36:21.117Z,93.34
2022-12-15T08:38:48.339Z,93.99
2022-12-15T08:41:17.554Z,93.91
2022-12-15T08:43:48.583Z,93.96
2022-12-15T08:46:21.436Z,93.33
2022-12-15T08:48:48.910Z,93.30
2022-12-15T08:51:16.365Z,92.99
2022-12-15T08:53:43.967Z,92.31
2022-12-15T08:56:19.120Z,92.66
2022-12-15T08:58:47.301Z,93.16
2022-12-15T09:01:23.290Z,93.11
2022-12-15T09:03:54.534Z,92.88
2022-12-15T09:06:24.309Z,92.62
2022-12-15T09:08:54.936Z,92.38
2022-12-15T09:11:24.347Z,92.08
2022-12-15T09:13:52.316Z,92.42
2022-12-15T09:16:20.659Z,91.99
2022-12-15T09:18:49.678Z,92.33
2022-12-15T09:21:17.427Z,92.28
2022-12-15T09:23:51.947Z,92.35
2022-12-15T09:26:21.096Z,92.10
2022-12-15T09:28:50.640Z,91.84
2022-12-15T09:31:23.196Z,92.10
2022-12-15T09:33:51.709Z,91.97
2022-12-15T09:36:20.189Z,92.11
2022-12-15T09:38:48.391Z,91.38
2022-12-15T09:41:15.704Z,91.68
2022-12-15T09:44:21.311Z,90.66
2022-12-15T09:47:11.984Z,90.33
2022-12-15T09:49:51.252Z,90.83
2022-12-15T09:52:20.797Z,90.59
2022-12-15T09:54:48.276Z,91.10
2022-12-15T09:57:31.452Z,90.13
2022-12-15T10:00:10.101Z,90.29
2022-12-15T10:02:47.373Z,90.64
2022-12-15T10:06:06.051Z,90.61
2022-12-15T10:08:24.866Z,90.37
2022-12-15T10:10:55.286Z,90.81
2022-12-15T10:13:56.291Z,89.77
2022-12-15T10:16:46.870Z,89.76
2022-12-15T10:19:37.424Z,90.73
2022-12-15T10:22:04.786Z,89.79
2022-12-15T10:27:38.659Z,89.93
2022-12-15T10:30:08.985Z,90.17
2022-12-15T10:32:51.203Z,90.11
2022-12-15T10:35:32.873Z,90.23
2022-12-15T10:38:27.265Z,90.26
2022-12-15T10:41:01.602Z,89.89
2022-12-15T10:43:35.782Z,89.68
2022-12-15T10:46:23.948Z,90.26
2022-12-15T10:48:59.389Z,90.23
2022-12-15T10:51:42.486Z,90.61
2022-12-15T10:54:10.004Z,90.86
2022-12-15T10:56:54.890Z,90.71
2022-12-15T10:59:24.711Z,89.93
2022-12-15T11:01:52.448Z,89.58
2022-12-15T11:04:32.557Z,90.22
2022-12-15T11:07:01.522Z,90.37
2022-12-15T11:09:38.939Z,91.58
2022-12-15T11:12:37.720Z,90.84
2022-12-15T11:15:23.412Z,90.02
2022-12-15T11:18:03.961Z,89.38
2022-12-15T11:20:37.548Z,88.89
2022-12-15T11:23:16.694Z,89.51
2022-12-15T11:25:46.508Z,90.79
2022-12-15T11:28:24.496Z,90.22
2022-12-15T11:30:57.931Z,90.69
2022-12-15T11:33:25.420Z,90.71
2022-12-15T11:36:13.752Z,90.29
2022-12-15T11:38:47.455Z,90.90
2022-12-15T11:41:45.113Z,90.66
2022-12-15T11:44:30.223Z,90.02
2022-12-15T11:47:10.040Z,90.88
2022-12-15T11:49:41.518Z,91.52
2022-12-15T11:52:20.789Z,90.55
2022-12-15T11:54:52.580Z,90.28
2022-12-15T11:57:42.657Z,90.48
2022-12-15T12:00:22.191Z,91.85
2022-12-15T12:02:58.347Z,91.17
2022-12-15T12:05:43.413Z,90.57
2022-12-15T12:08:20.110Z,90.24
2022-12-15T12:11:13.105Z,90.39
2022-12-15T12:14:12.033Z,89.70
2022-12-15T12:16:55.350Z,89.93
2022-12-15T12:19:42.394Z,90.77
2022-12-15T12:22:20.946Z,89.23
2022-12-15T12:24:50.855Z,90.31
2022-12-15T12:27:29.247Z,90.28
2022-12-15T12:30:03.756Z,89.49
2022-12-15T12:33:05.718Z,91.05
2022-12-15T12:35:40.968Z,91.05
2022-12-15T12:38:12.057Z,90.50
2022-12-15T12:41:01.220Z,90.63
2022-12-15T12:43:32.937Z,90.11
2022-12-15T12:46:10.161Z,90.42
2022-12-15T12:48:40.548Z,91.12
2022-12-15T12:51:26.405Z,91.11
2022-12-15T12:53:53.664Z,91.41
2022-12-15T12:56:38.776Z,91.40
2022-12-15T12:59:30.948Z,90.88
2022-12-15T13:02:15.811Z,91.50
2022-12-15T13:04:57.441Z,91.64
2022-12-15T13:07:38.746Z,91.41
2022-12-15T13:10:09.217Z,91.68
2022-12-15T13:12:53.727Z,92.72
2022-12-15T13:15:27.821Z,92.82
2022-12-15T13:18:24.474Z,92.52
2022-12-15T13:20:55.700Z,92.04
2022-12-15T13:23:25.908Z,92.87
2022-12-15T13:25:55.915Z,92.52
2022-12-15T13:28:39.218Z,92.10
2022-12-15T13:31:21.714Z,92.86
2022-12-15T13:33:49.181Z,92.94
2022-12-15T13:36:41.324Z,94.39
2022-12-15T13:39:11.378Z,94.02
2022-12-15T13:42:00.186Z,94.50
2022-12-15T13:44:35.295Z,94.64
2022-12-15T13:47:26.636Z,94.68
2022-12-15T13:50:14.756Z,94.88
2022-12-15T13:53:17.188Z,95.50
2022-12-15T13:55:38.245Z,95.32
2022-12-15T13:58:07.524Z,95.81
2022-12-15T14:00:36.216Z,95.40
2022-12-15T14:03:07.122Z,95.22
2022-12-15T14:05:34.424Z,95.17
2022-12-15T14:08:09.588Z,95.63
2022-12-15T14:11:46.067Z,96.06
2022-12-15T14:14:02.138Z,96.55
2022-12-15T14:16:31.312Z,96.62
2022-12-15T14:19:14.594Z,97.47
2022-12-15T14:21:57.792Z,97.58
2022-12-15T14:24:41.136Z,97.69
2022-12-15T14:27:08.740Z,97.40
2022-12-15T14:29:36.088Z,98.12
2022-12-15T14:32:05.775Z,98.65
2022-12-15T14:34:37.062Z,98.84
2022-12-15T14:37:07.842Z,99.25
2022-12-15T14:39:39.642Z,99.78
2022-12-15T14:42:07.598Z,99.43
2022-12-15T14:44:39.181Z,99.71
2022-12-15T14:47:08.562Z,100.00
2022-12-15T14:49:40.748Z,100.00
2022-12-15T14:52:12.676Z,100.00
2022-12-15T14:54:49.569Z,100.00
2022-12-15T14:57:20.597Z,100.00
2022-12-15T14:59:54.507Z,100.00
2022-12-15T15:02:25.282Z,100.00
2022-12-15T15:04:56.979Z,100.00
2022-12-15T15:07:24.368Z,100.00
2022-12-15T15:09:51.619Z,100.00
2022-12-15T15:12:20.575Z,100.00
2022-12-15T15:15:04.975Z,100.00
2022-12-15T15:17:36.405Z,100.00
2022-12-15T15:20:06.996Z,100.00
2022-12-15T15:22:39.777Z,100.00
2022-12-15T15:25:27.966Z,100.00
2022-12-15T15:28:17.496Z,100.00
2022-12-15T15:30:49.198Z,100.00
2022-12-15T15:33:16.812Z,100.00
2022-12-15T15:35:44.499Z,100.00
2022-12-15T15:38:20.537Z,100.00
2022-12-15T15:40:58.969Z,100.00
2022-12-15T15:43:27.291Z,100.00
2022-12-15T15:46:03.019Z,100.00
2022-12-15T15:48:32.383Z,100.00
2022-12-15T15:51:00.078Z,100.00
2022-12-15T15:53:27.475Z,100.00
2022-12-15T15:55:54.780Z,100.00
2022-12-15T15:58:22.268Z,100.00
2022-12-15T16:00:49.646Z,100.00
2022-12-15T16:03:17.111Z,100.00
2022-12-15T16:05:44.571Z,100.00
2022-12-15T16:08:17.068Z,100.00
2022-12-15T16:10:47.283Z,100.00
2022-12-15T16:13:20.792Z,100.00
2022-12-15T16:15:51.295Z,100.00
2022-12-15T16:18:18.531Z,100.00
2022-12-15T16:20:47.633Z,100.00
2022-12-15T16:23:16.626Z,100.00
2022-12-15T16:25:50.830Z,100.00
2022-12-15T16:28:23.653Z,100.00
2022-12-15T16:30:51.167Z,100.00
2022-12-15T16:33:19.614Z,100.00
2022-12-15T16:35:49.549Z,100.00
2022-12-15T16:38:30.482Z,100.00
2022-12-15T16:40:59.040Z,100.00
2022-12-15T16:43:31.482Z,100.00
2022-12-15T16:46:03.583Z,100.00
2022-12-15T16:48:31.544Z,100.00
2022-12-15T16:50:59.346Z,100.00
2022-12-15T16:53:28.752Z,100.00
2022-12-15T16:55:57.387Z,100.00
2022-12-15T16:58:26.259Z,100.00
2022-12-15T17:00:56.529Z,100.00
2022-12-15T17:03:26.027Z,100.00
2022-12-15T17:05:55.645Z,100.00
2022-12-15T17:08:57.582Z,100.00
2022-12-15T17:11:25.655Z,100.00
2022-12-15T17:13:54.088Z,100.00
2022-12-15T17:16:23.335Z,100.00
2022-12-15T17:18:51.594Z,100.00
2022-12-15T17:21:27.091Z,100.00
2022-12-15T17:23:59.767Z,100.00
2022-12-15T17:26:29.868Z,100.00
2022-12-15T17:29:06.500Z,100.00
2022-12-15T17:31:35.995Z,100.00
2022-12-15T17:34:28.338Z,100.00
2022-12-15T17:36:57.062Z,100.00
2022-12-15T17:39:24.361Z,100.00
2022-12-15T17:42:00.837Z,100.00
2022-12-15T17:44:36.843Z,100.00
2022-12-15T17:47:07.055Z,100.00
2022-12-15T17:49:37.589Z,100.00
2022-12-15T17:52:23.926Z,100.00
2022-12-15T17:54:51.292Z,100.00
2022-12-15T17:57:18.595Z,100.00
2022-12-15T17:59:45.890Z,100.00
2022-12-15T18:02:14.352Z,100.00
2022-12-15T18:04:41.911Z,100.00
2022-12-15T18:07:14.443Z,100.00
2022-12-15T18:09:42.098Z,100.00
2022-12-15T18:12:20.019Z,100.00
2022-12-15T18:14:47.937Z,100.00
2022-12-15T18:17:15.212Z,100.00
2022-12-15T18:19:42.593Z,100.00
2022-12-15T18:22:19.211Z,100.00
2022-12-15T18:24:46.703Z,100.00
2022-12-15T18:27:20.863Z,100.00
2022-12-15T18:29:48.066Z,100.00
2022-12-15T18:32:17.391Z,100.00
2022-12-15T18:34:44.688Z,100.00
2022-12-15T18:37:19.840Z,100.00
2022-12-15T18:39:47.288Z,100.00
2022-12-15T18:42:16.225Z,100.00
2022-12-15T18:44:52.936Z,100.00
2022-12-15T18:47:22.703Z,100.00
2022-12-15T18:49:50.112Z,100.00
2022-12-15T18:52:24.163Z,100.00
2022-12-15T18:54:52.263Z,100.00
2022-12-15T18:57:30.495Z,100.00
2022-12-15T19:00:09.827Z,100.00
2022-12-15T19:02:37.208Z,100.00
2022-12-15T19:05:04.764Z,100.00
2022-12-15T19:07:32.823Z,100.00
2022-12-15T19:10:00.946Z,100.00
2022-12-15T19:12:28.315Z,100.00
2022-12-15T19:14:55.565Z,100.00
2022-12-15T19:17:41.910Z,100.00
2022-12-15T19:20:37.314Z,100.00
2022-12-15T19:23:05.193Z,100.00
2022-12-15T19:25:32.676Z,100.00
2022-12-15T19:28:00.365Z,100.00
2022-12-15T19:30:37.016Z,100.00
2022-12-15T19:33:09.075Z,100.00
2022-12-15T19:35:37.195Z,100.00
2022-12-15T19:38:04.597Z,100.00
2022-12-15T19:40:32.692Z,100.00
2022-12-15T19:43:00.465Z,100.00
2022-12-15T19:45:31.652Z,100.00
2022-12-15T19:47:58.933Z,100.00
2022-12-15T19:50:31.340Z,100.00
2022-12-15T19:53:00.200Z,100.00
2022-12-15T19:55:33.146Z,100.00
2022-12-15T19:58:01.055Z,100.00
2022-12-15T20:00:29.433Z,100.00
2022-12-15T20:02:57.177Z,100.00
2022-12-15T20:05:24.797Z,100.00
2022-12-15T20:07:53.712Z,100.00
2022-12-15T20:10:27.622Z,100.00
2022-12-15T20:12:57.039Z,100.00
2022-12-15T20:15:25.546Z,100.00
2022-12-15T20:17:57.773Z,100.00
2022-12-15T20:20:26.838Z,100.00
2022-12-15T20:22:56.483Z,100.00
2022-12-15T20:25:29.335Z,100.00
2022-12-15T20:27:56.982Z,100.00
2022-12-15T20:30:25.871Z,100.00
2022-12-15T20:32:53.343Z,100.00
2022-12-15T20:35:21.524Z,100.00
2022-12-15T20:37:48.859Z,100.00
2022-12-15T20:40:17.597Z,100.00
2022-12-15T20:42:45.023Z,100.00
2022-12-15T20:45:14.203Z,100.00
2022-12-15T20:47:41.881Z,100.00
2022-12-15T20:50:42.114Z,100.00
2022-12-15T20:53:20.783Z,100.00
2022-12-15T20:55:49.063Z,100.00
2022-12-15T20:58:16.964Z,100.00
2022-12-15T21:00:44.729Z,100.00
2022-12-15T21:03:16.831Z,100.00
2022-12-15T21:05:44.346Z,100.00
2022-12-15T21:08:24.716Z,100.00
2022-12-15T21:10:53.824Z,100.00
2022-12-15T21:13:29.393Z,100.00
2022-12-15T21:15:58.149Z,100.00
2022-12-15T21:19:17.906Z,100.00
2022-12-15T21:21:20.920Z,100.00
2022-12-15T21:23:48.643Z,100.00
2022-12-15T21:26:20.362Z,100.00
2022-12-15T21:28:48.758Z,100.00
2022-12-15T21:31:18.962Z,100.00
2022-12-15T21:33:47.138Z,100.00
2022-12-15T21:36:15.866Z,100.00
2022-12-15T21:38:44.328Z,100.00
2022-12-15T21:41:16.144Z,100.00
2022-12-15T21:43:43.582Z,100.00
2022-12-15T21:46:26.095Z,100.00
2022-12-15T21:49:14.343Z,100.00
2022-12-15T21:51:52.013Z,100.00
2022-12-15T21:54:28.808Z,100.00
2022-12-15T21:57:01.063Z,100.00
2022-12-15T21:59:30.199Z,100.00
2022-12-15T22:01:57.558Z,100.00
2022-12-15T22:04:32.499Z,100.00
2022-12-15T22:06:59.932Z,100.00
2022-12-15T22:09:27.237Z,100.00
2022-12-15T22:11:54.854Z,100.00
2022-12-15T22:14:40.873Z,100.00
2022-12-15T22:17:26.672Z,100.00
2022-12-15T22:19:54.074Z,100.00
2022-12-15T22:22:24.675Z,100.00
2022-12-15T22:24:54.793Z,100.00
2022-12-15T22:27:22.458Z,100.00
2022-12-15T22:29:50.206Z,100.00
2022-12-15T22:32:17.682Z,100.00
2022-12-15T22:34:45.217Z,100.00
2022-12-15T22:37:12.551Z,100.00
2022-12-15T22:39:39.870Z,100.00
2022-12-15T22:42:07.424Z,100.00
2022-12-15T22:44:37.198Z,100.00
2022-12-15T22:47:05.177Z,100.00
2022-12-15T22:49:34.777Z,100.00
2022-12-15T22:52:02.108Z,100.00
2022-12-15T22:54:31.945Z,100.00
2022-12-15T22:57:00.767Z,100.00
2022-12-15T22:59:32.545Z,100.00
2022-12-15T23:02:02.081Z,100.00
2022-12-15T23:04:30.428Z,100.00
2022-12-15T23:06:59.117Z,100.00
2022-12-15T23:09:26.380Z,100.00
2022-12-15T23:11:53.811Z,100.00
2022-12-15T23:14:42.611Z,100.00
2022-12-15T23:17:09.866Z,100.00
2022-12-15T23:19:37.298Z,100.00
2022-12-15T23:22:04.833Z,100.00
2022-12-15T23:24:32.662Z,100.00
2022-12-15T23:26:59.963Z,100.00
2022-12-15T23:29:27.360Z,100.00
2022-12-15T23:31:54.657Z,100.00
2022-12-15T23:34:21.968Z,100.00
2022-12-15T23:36:53.041Z,100.00
2022-12-15T23:39:20.489Z,100.00
2022-12-15T23:41:47.757Z,100.00
2022-12-15T23:44:15.078Z,100.00
2022-12-15T23:46:42.627Z,100.00
2022-12-15T23:49:10.081Z,100.00
2022-12-15T23:51:37.294Z,100.00
2022-12-15T23:54:04.617Z,100.00
2022-12-15T23:56:31.860Z,100.00
2022-12-15T23:58:59.338Z,100.00
